Santa Terezinha, Brazil
Current Conditions -  °F | °C
As of 10:00 AM on Wednesday 26 Nov 2014 (Local Time) from SBPN Reporting Station
Scattered Clouds Scattered Clouds  
Wind Chill: 79°   Ceiling: Unl
Heat Index: 82°   Visibility: 6mi
Dew Point: 73°   Wind: 12mph
Humidity: 83%   Direction: 120°ESE
Pressure: 29.91"   Gusts: NA
Location:  10.47°S, 50.5°W
Report Text: SBPN 261300Z 12010KT 9999 SCT015 SCT080 26/23 Q1013
Loading
Personal Weather Stations






























Interactive Weather Map New forecast layout! Learn more

10-Day Weather Forecast

Advertisements
Track Severe Weather on mobile